sensor_id;sensor_type;location;lat;lon;timestamp;P1;durP1;ratioP1;P2;durP2;ratioP2
78648;SDS011;67962;47.310;9.642;2024-03-08T00:00:40;14.75;;;7.88;;
78648;SDS011;67962;47.310;9.642;2024-03-08T00:03:07;12.73;;;7.05;;
78648;SDS011;67962;47.310;9.642;2024-03-08T00:05:35;19.08;;;8.75;;
78648;SDS011;67962;47.310;9.642;2024-03-08T00:08:01;14.75;;;8.35;;
78648;SDS011;67962;47.310;9.642;2024-03-08T00:10:27;15.68;;;7.82;;
78648;SDS011;67962;47.310;9.642;2024-03-08T00:12:54;13.00;;;7.00;;
78648;SDS011;67962;47.310;9.642;2024-03-08T00:15:20;17.65;;;7.97;;
78648;SDS011;67962;47.310;9.642;2024-03-08T00:17:48;16.27;;;7.40;;
78648;SDS011;67962;47.310;9.642;2024-03-08T00:20:13;14.90;;;7.07;;
78648;SDS011;67962;47.310;9.642;2024-03-08T00:22:39;13.75;;;7.65;;
78648;SDS011;67962;47.310;9.642;2024-03-08T00:25:06;16.23;;;7.25;;
78648;SDS011;67962;47.310;9.642;2024-03-08T00:27:35;17.23;;;7.88;;
78648;SDS011;67962;47.310;9.642;2024-03-08T00:30:02;16.10;;;7.10;;
78648;SDS011;67962;47.310;9.642;2024-03-08T00:32:28;19.20;;;8.05;;
78648;SDS011;67962;47.310;9.642;2024-03-08T00:34:53;12.60;;;6.72;;
78648;SDS011;67962;47.310;9.642;2024-03-08T00:37:20;13.20;;;6.47;;
78648;SDS011;67962;47.310;9.642;2024-03-08T00:39:49;11.93;;;6.30;;
78648;SDS011;67962;47.310;9.642;2024-03-08T00:42:16;11.85;;;5.30;;
78648;SDS011;67962;47.310;9.642;2024-03-08T00:44:42;12.38;;;5.88;;
78648;SDS011;67962;47.310;9.642;2024-03-08T00:47:08;13.35;;;6.25;;
78648;SDS011;67962;47.310;9.642;2024-03-08T00:49:34;9.80;;;5.10;;
78648;SDS011;67962;47.310;9.642;2024-03-08T00:52:03;12.75;;;6.35;;
78648;SDS011;67962;47.310;9.642;2024-03-08T00:54:33;10.80;;;5.32;;
78648;SDS011;67962;47.310;9.642;2024-03-08T00:57:01;12.32;;;6.00;;
78648;SDS011;67962;47.310;9.642;2024-03-08T00:59:28;13.27;;;5.63;;
78648;SDS011;67962;47.310;9.642;2024-03-08T01:01:54;10.98;;;5.00;;
78648;SDS011;67962;47.310;9.642;2024-03-08T01:04:20;10.70;;;5.35;;
78648;SDS011;67962;47.310;9.642;2024-03-08T01:06:46;11.63;;;5.57;;
78648;SDS011;67962;47.310;9.642;2024-03-08T01:09:12;10.18;;;5.32;;
78648;SDS011;67962;47.310;9.642;2024-03-08T01:11:38;10.10;;;5.10;;
78648;SDS011;67962;47.310;9.642;2024-03-08T01:14:04;13.35;;;5.45;;
78648;SDS011;67962;47.310;9.642;2024-03-08T01:16:30;13.30;;;5.53;;
78648;SDS011;67962;47.310;9.642;2024-03-08T01:18:58;10.32;;;5.50;;
78648;SDS011;67962;47.310;9.642;2024-03-08T01:21:23;12.15;;;6.20;;
78648;SDS011;67962;47.310;9.642;2024-03-08T01:23:49;8.38;;;4.70;;
78648;SDS011;67962;47.310;9.642;2024-03-08T01:26:15;11.95;;;5.78;;
78648;SDS011;67962;47.310;9.642;2024-03-08T01:28:41;12.07;;;5.35;;
78648;SDS011;67962;47.310;9.642;2024-03-08T01:31:07;11.27;;;5.22;;
78648;SDS011;67962;47.310;9.642;2024-03-08T01:33:32;11.13;;;5.35;;
78648;SDS011;67962;47.310;9.642;2024-03-08T01:35:58;15.30;;;6.50;;
78648;SDS011;67962;47.310;9.642;2024-03-08T01:38:23;10.98;;;6.10;;
78648;SDS011;67962;47.310;9.642;2024-03-08T01:40:50;10.95;;;4.60;;
78648;SDS011;67962;47.310;9.642;2024-03-08T01:45:45;8.65;;;5.20;;
78648;SDS011;67962;47.310;9.642;2024-03-08T01:48:11;10.82;;;5.13;;
78648;SDS011;67962;47.310;9.642;2024-03-08T01:50:38;10.15;;;4.70;;
78648;SDS011;67962;47.310;9.642;2024-03-08T01:53:04;7.75;;;4.68;;
78648;SDS011;67962;47.310;9.642;2024-03-08T01:55:31;10.60;;;4.57;;
78648;SDS011;67962;47.310;9.642;2024-03-08T01:57:57;9.48;;;4.80;;
78648;SDS011;67962;47.310;9.642;2024-03-08T02:00:24;11.05;;;5.00;;
78648;SDS011;67962;47.310;9.642;2024-03-08T02:02:51;7.53;;;4.10;;
78648;SDS011;67962;47.310;9.642;2024-03-08T02:05:19;10.23;;;5.20;;
78648;SDS011;67962;47.310;9.642;2024-03-08T02:07:46;12.07;;;4.97;;
78648;SDS011;67962;47.310;9.642;2024-03-08T02:10:12;7.47;;;4.10;;
78648;SDS011;67962;47.310;9.642;2024-03-08T02:12:38;10.52;;;4.53;;
78648;SDS011;67962;47.310;9.642;2024-03-08T02:15:04;9.43;;;4.95;;
78648;SDS011;67962;47.310;9.642;2024-03-08T02:17:31;7.35;;;4.38;;
78648;SDS011;67962;47.310;9.642;2024-03-08T02:19:58;7.78;;;4.50;;
78648;SDS011;67962;47.310;9.642;2024-03-08T02:22:26;11.70;;;5.88;;
78648;SDS011;67962;47.310;9.642;2024-03-08T02:24:56;11.75;;;6.38;;
78648;SDS011;67962;47.310;9.642;2024-03-08T02:27:26;9.18;;;4.95;;
78648;SDS011;67962;47.310;9.642;2024-03-08T02:29:54;14.85;;;4.78;;
78648;SDS011;67962;47.310;9.642;2024-03-08T02:32:21;10.85;;;4.30;;
78648;SDS011;67962;47.310;9.642;2024-03-08T02:34:47;7.80;;;4.53;;
78648;SDS011;67962;47.310;9.642;2024-03-08T02:37:14;8.48;;;3.70;;
78648;SDS011;67962;47.310;9.642;2024-03-08T02:39:40;9.43;;;4.22;;
78648;SDS011;67962;47.310;9.642;2024-03-08T02:42:06;8.05;;;4.38;;
78648;SDS011;67962;47.310;9.642;2024-03-08T02:44:32;7.35;;;3.83;;
78648;SDS011;67962;47.310;9.642;2024-03-08T02:46:59;6.82;;;3.65;;
78648;SDS011;67962;47.310;9.642;2024-03-08T02:49:25;9.68;;;3.72;;
78648;SDS011;67962;47.310;9.642;2024-03-08T02:51:51;6.80;;;3.65;;
78648;SDS011;67962;47.310;9.642;2024-03-08T02:54:18;5.70;;;3.40;;
78648;SDS011;67962;47.310;9.642;2024-03-08T02:56:44;7.32;;;3.63;;
78648;SDS011;67962;47.310;9.642;2024-03-08T02:59:11;6.57;;;3.33;;
78648;SDS011;67962;47.310;9.642;2024-03-08T03:01:42;6.43;;;3.55;;
78648;SDS011;67962;47.310;9.642;2024-03-08T03:04:08;4.68;;;3.10;;
78648;SDS011;67962;47.310;9.642;2024-03-08T03:06:34;9.60;;;3.50;;
78648;SDS011;67962;47.310;9.642;2024-03-08T03:09:00;5.95;;;3.10;;
78648;SDS011;67962;47.310;9.642;2024-03-08T03:11:26;6.30;;;3.50;;
78648;SDS011;67962;47.310;9.642;2024-03-08T03:13:52;6.78;;;3.28;;
78648;SDS011;67962;47.310;9.642;2024-03-08T03:16:21;6.70;;;3.42;;
78648;SDS011;67962;47.310;9.642;2024-03-08T03:18:47;7.32;;;3.50;;
78648;SDS011;67962;47.310;9.642;2024-03-08T03:21:13;4.43;;;3.10;;
78648;SDS011;67962;47.310;9.642;2024-03-08T03:23:39;5.55;;;3.20;;
78648;SDS011;67962;47.310;9.642;2024-03-08T03:26:06;7.53;;;3.20;;
78648;SDS011;67962;47.310;9.642;2024-03-08T03:28:38;7.97;;;2.97;;
78648;SDS011;67962;47.310;9.642;2024-03-08T03:31:06;6.22;;;3.00;;
78648;SDS011;67962;47.310;9.642;2024-03-08T03:33:32;6.57;;;3.30;;
78648;SDS011;67962;47.310;9.642;2024-03-08T03:36:01;8.40;;;3.22;;
78648;SDS011;67962;47.310;9.642;2024-03-08T03:38:28;9.48;;;3.03;;
78648;SDS011;67962;47.310;9.642;2024-03-08T03:40:53;5.90;;;3.28;;
78648;SDS011;67962;47.310;9.642;2024-03-08T03:43:22;4.68;;;2.85;;
78648;SDS011;67962;47.310;9.642;2024-03-08T03:45:48;6.82;;;3.47;;
78648;SDS011;67962;47.310;9.642;2024-03-08T03:48:14;6.85;;;3.25;;
78648;SDS011;67962;47.310;9.642;2024-03-08T03:50:40;6.38;;;3.30;;
78648;SDS011;67962;47.310;9.642;2024-03-08T03:53:06;6.32;;;2.85;;
78648;SDS011;67962;47.310;9.642;2024-03-08T03:55:33;4.22;;;2.67;;
78648;SDS011;67962;47.310;9.642;2024-03-08T03:57:59;5.18;;;3.00;;
78648;SDS011;67962;47.310;9.642;2024-03-08T04:00:26;5.30;;;2.85;;
78648;SDS011;67962;47.310;9.642;2024-03-08T04:02:52;9.32;;;2.80;;
78648;SDS011;67962;47.310;9.642;2024-03-08T04:05:18;4.50;;;2.70;;
78648;SDS011;67962;47.310;9.642;2024-03-08T04:07:44;5.55;;;2.45;;
78648;SDS011;67962;47.310;9.642;2024-03-08T04:10:10;5.88;;;2.80;;
78648;SDS011;67962;47.310;9.642;2024-03-08T04:12:37;5.55;;;2.72;;
78648;SDS011;67962;47.310;9.642;2024-03-08T04:15:03;5.13;;;2.80;;
78648;SDS011;67962;47.310;9.642;2024-03-08T04:17:32;6.95;;;2.75;;
78648;SDS011;67962;47.310;9.642;2024-03-08T04:20:02;5.45;;;2.38;;
78648;SDS011;67962;47.310;9.642;2024-03-08T04:22:35;8.45;;;3.83;;
78648;SDS011;67962;47.310;9.642;2024-03-08T04:25:02;4.85;;;2.95;;
78648;SDS011;67962;47.310;9.642;2024-03-08T04:27:28;6.65;;;3.80;;
78648;SDS011;67962;47.310;9.642;2024-03-08T04:29:54;11.77;;;4.82;;
78648;SDS011;67962;47.310;9.642;2024-03-08T04:32:20;14.07;;;5.95;;
78648;SDS011;67962;47.310;9.642;2024-03-08T04:34:46;13.27;;;5.78;;
78648;SDS011;67962;47.310;9.642;2024-03-08T04:37:11;13.90;;;6.40;;
78648;SDS011;67962;47.310;9.642;2024-03-08T04:39:39;12.07;;;6.68;;
78648;SDS011;67962;47.310;9.642;2024-03-08T04:42:06;12.45;;;6.72;;
78648;SDS011;67962;47.310;9.642;2024-03-08T04:44:35;14.77;;;7.03;;
78648;SDS011;67962;47.310;9.642;2024-03-08T04:47:04;16.48;;;7.40;;
78648;SDS011;67962;47.310;9.642;2024-03-08T04:49:31;14.45;;;6.72;;
78648;SDS011;67962;47.310;9.642;2024-03-08T04:52:02;16.33;;;7.25;;
78648;SDS011;67962;47.310;9.642;2024-03-08T04:54:29;15.50;;;7.78;;
78648;SDS011;67962;47.310;9.642;2024-03-08T04:56:55;15.90;;;7.32;;
78648;SDS011;67962;47.310;9.642;2024-03-08T04:59:20;16.30;;;7.35;;
78648;SDS011;67962;47.310;9.642;2024-03-08T05:01:46;19.23;;;8.18;;
78648;SDS011;67962;47.310;9.642;2024-03-08T05:04:12;18.75;;;9.15;;
78648;SDS011;67962;47.310;9.642;2024-03-08T05:06:38;17.05;;;8.45;;
78648;SDS011;67962;47.310;9.642;2024-03-08T05:09:04;21.02;;;9.27;;
78648;SDS011;67962;47.310;9.642;2024-03-08T05:11:47;17.80;;;8.20;;
78648;SDS011;67962;47.310;9.642;2024-03-08T05:14:13;20.20;;;9.75;;
78648;SDS011;67962;47.310;9.642;2024-03-08T05:16:45;17.98;;;8.52;;
78648;SDS011;67962;47.310;9.642;2024-03-08T05:19:20;14.50;;;7.80;;
78648;SDS011;67962;47.310;9.642;2024-03-08T05:21:46;21.90;;;9.50;;
78648;SDS011;67962;47.310;9.642;2024-03-08T05:24:13;17.88;;;8.93;;
78648;SDS011;67962;47.310;9.642;2024-03-08T05:26:40;17.73;;;8.20;;
78648;SDS011;67962;47.310;9.642;2024-03-08T05:29:06;18.08;;;9.50;;
78648;SDS011;67962;47.310;9.642;2024-03-08T05:31:38;17.85;;;8.13;;
78648;SDS011;67962;47.310;9.642;2024-03-08T05:34:08;20.75;;;9.15;;
78648;SDS011;67962;47.310;9.642;2024-03-08T05:36:35;20.55;;;9.50;;
78648;SDS011;67962;47.310;9.642;2024-03-08T05:39:01;19.50;;;9.35;;
78648;SDS011;67962;47.310;9.642;2024-03-08T05:41:26;16.38;;;8.45;;
78648;SDS011;67962;47.310;9.642;2024-03-08T05:43:52;15.15;;;7.95;;
78648;SDS011;67962;47.310;9.642;2024-03-08T05:46:18;20.08;;;8.65;;
78648;SDS011;67962;47.310;9.642;2024-03-08T05:48:44;26.77;;;12.88;;
78648;SDS011;67962;47.310;9.642;2024-03-08T05:51:10;28.23;;;12.25;;
78648;SDS011;67962;47.310;9.642;2024-03-08T05:53:37;20.95;;;10.68;;
78648;SDS011;67962;47.310;9.642;2024-03-08T05:56:02;22.80;;;10.85;;
78648;SDS011;67962;47.310;9.642;2024-03-08T05:58:28;19.65;;;11.05;;
78648;SDS011;67962;47.310;9.642;2024-03-08T06:00:56;30.48;;;13.70;;
78648;SDS011;67962;47.310;9.642;2024-03-08T06:03:22;29.08;;;14.15;;
78648;SDS011;67962;47.310;9.642;2024-03-08T06:05:48;24.77;;;12.45;;
78648;SDS011;67962;47.310;9.642;2024-03-08T06:08:14;24.92;;;12.52;;
78648;SDS011;67962;47.310;9.642;2024-03-08T06:10:40;31.02;;;13.93;;
78648;SDS011;67962;47.310;9.642;2024-03-08T06:13:06;26.30;;;12.82;;
78648;SDS011;67962;47.310;9.642;2024-03-08T06:15:32;25.67;;;11.63;;
78648;SDS011;67962;47.310;9.642;2024-03-08T06:17:58;29.42;;;13.80;;
78648;SDS011;67962;47.310;9.642;2024-03-08T06:20:24;27.13;;;13.32;;
78648;SDS011;67962;47.310;9.642;2024-03-08T06:22:51;28.33;;;12.38;;
78648;SDS011;67962;47.310;9.642;2024-03-08T06:25:17;24.55;;;11.68;;
78648;SDS011;67962;47.310;9.642;2024-03-08T06:27:43;23.52;;;10.85;;
78648;SDS011;67962;47.310;9.642;2024-03-08T06:30:09;20.60;;;10.93;;
78648;SDS011;67962;47.310;9.642;2024-03-08T06:32:35;22.80;;;11.65;;
78648;SDS011;67962;47.310;9.642;2024-03-08T06:35:02;27.05;;;11.95;;
78648;SDS011;67962;47.310;9.642;2024-03-08T06:37:31;26.77;;;12.77;;
78648;SDS011;67962;47.310;9.642;2024-03-08T06:39:57;29.38;;;12.95;;
78648;SDS011;67962;47.310;9.642;2024-03-08T06:42:23;26.38;;;12.88;;
78648;SDS011;67962;47.310;9.642;2024-03-08T06:44:49;24.02;;;12.00;;
78648;SDS011;67962;47.310;9.642;2024-03-08T06:47:15;21.55;;;11.32;;
78648;SDS011;67962;47.310;9.642;2024-03-08T06:49:42;30.67;;;12.55;;
78648;SDS011;67962;47.310;9.642;2024-03-08T06:52:08;21.83;;;11.48;;
78648;SDS011;67962;47.310;9.642;2024-03-08T06:54:37;23.60;;;11.88;;
78648;SDS011;67962;47.310;9.642;2024-03-08T06:57:03;26.65;;;13.65;;
78648;SDS011;67962;47.310;9.642;2024-03-08T06:59:30;26.63;;;12.13;;
78648;SDS011;67962;47.310;9.642;2024-03-08T07:01:56;23.85;;;11.75;;
78648;SDS011;67962;47.310;9.642;2024-03-08T07:04:22;20.58;;;11.20;;
78648;SDS011;67962;47.310;9.642;2024-03-08T07:06:51;19.90;;;10.95;;
78648;SDS011;67962;47.310;9.642;2024-03-08T07:09:17;22.10;;;10.85;;
78648;SDS011;67962;47.310;9.642;2024-03-08T07:11:43;16.77;;;10.27;;
78648;SDS011;67962;47.310;9.642;2024-03-08T07:14:08;20.98;;;11.77;;
78648;SDS011;67962;47.310;9.642;2024-03-08T07:16:34;19.95;;;11.40;;
78648;SDS011;67962;47.310;9.642;2024-03-08T07:19:01;21.90;;;12.20;;
78648;SDS011;67962;47.310;9.642;2024-03-08T07:21:26;29.20;;;15.85;;
78648;SDS011;67962;47.310;9.642;2024-03-08T07:23:52;35.63;;;17.27;;
78648;SDS011;67962;47.310;9.642;2024-03-08T07:26:47;35.72;;;15.65;;
78648;SDS011;67962;47.310;9.642;2024-03-08T07:29:17;26.83;;;12.98;;
78648;SDS011;67962;47.310;9.642;2024-03-08T07:31:43;25.00;;;12.13;;
78648;SDS011;67962;47.310;9.642;2024-03-08T07:34:44;18.30;;;10.00;;
78648;SDS011;67962;47.310;9.642;2024-03-08T07:37:09;19.65;;;10.18;;
78648;SDS011;67962;47.310;9.642;2024-03-08T07:39:38;21.90;;;10.70;;
78648;SDS011;67962;47.310;9.642;2024-03-08T07:42:04;18.83;;;10.13;;
78648;SDS011;67962;47.310;9.642;2024-03-08T07:44:30;14.10;;;8.20;;
78648;SDS011;67962;47.310;9.642;2024-03-08T07:46:58;16.58;;;8.10;;
78648;SDS011;67962;47.310;9.642;2024-03-08T07:49:24;12.85;;;7.07;;
78648;SDS011;67962;47.310;9.642;2024-03-08T07:51:50;11.02;;;6.32;;
78648;SDS011;67962;47.310;9.642;2024-03-08T07:54:16;11.95;;;6.88;;
78648;SDS011;67962;47.310;9.642;2024-03-08T07:56:42;14.38;;;7.28;;
78648;SDS011;67962;47.310;9.642;2024-03-08T07:59:08;14.75;;;7.03;;
78648;SDS011;67962;47.310;9.642;2024-03-08T08:01:36;12.48;;;6.88;;
78648;SDS011;67962;47.310;9.642;2024-03-08T08:04:01;12.65;;;6.22;;
78648;SDS011;67962;47.310;9.642;2024-03-08T08:06:27;13.77;;;6.25;;
78648;SDS011;67962;47.310;9.642;2024-03-08T08:08:56;11.02;;;6.95;;
78648;SDS011;67962;47.310;9.642;2024-03-08T08:11:22;12.93;;;6.57;;
78648;SDS011;67962;47.310;9.642;2024-03-08T08:13:50;13.15;;;7.03;;
78648;SDS011;67962;47.310;9.642;2024-03-08T08:16:16;11.20;;;6.88;;
78648;SDS011;67962;47.310;9.642;2024-03-08T08:18:41;13.95;;;7.25;;
78648;SDS011;67962;47.310;9.642;2024-03-08T08:21:07;12.60;;;6.70;;
78648;SDS011;67962;47.310;9.642;2024-03-08T08:23:33;12.65;;;6.93;;
78648;SDS011;67962;47.310;9.642;2024-03-08T08:25:59;10.90;;;6.80;;
78648;SDS011;67962;47.310;9.642;2024-03-08T08:28:28;11.57;;;6.90;;
78648;SDS011;67962;47.310;9.642;2024-03-08T08:30:54;13.75;;;6.72;;
78648;SDS011;67962;47.310;9.642;2024-03-08T08:33:20;13.40;;;7.35;;
78648;SDS011;67962;47.310;9.642;2024-03-08T08:35:46;13.02;;;6.57;;
78648;SDS011;67962;47.310;9.642;2024-03-08T08:38:13;12.65;;;7.25;;
78648;SDS011;67962;47.310;9.642;2024-03-08T08:40:38;12.48;;;7.00;;
78648;SDS011;67962;47.310;9.642;2024-03-08T08:43:04;12.32;;;7.40;;
78648;SDS011;67962;47.310;9.642;2024-03-08T08:45:30;12.13;;;6.90;;
78648;SDS011;67962;47.310;9.642;2024-03-08T08:47:56;13.23;;;6.97;;
78648;SDS011;67962;47.310;9.642;2024-03-08T08:50:24;12.95;;;7.35;;
78648;SDS011;67962;47.310;9.642;2024-03-08T08:52:53;11.63;;;6.65;;
78648;SDS011;67962;47.310;9.642;2024-03-08T08:55:19;11.07;;;7.03;;
78648;SDS011;67962;47.310;9.642;2024-03-08T08:57:50;11.65;;;7.00;;
78648;SDS011;67962;47.310;9.642;2024-03-08T09:00:17;11.77;;;6.95;;
78648;SDS011;67962;47.310;9.642;2024-03-08T09:02:46;11.73;;;6.82;;
78648;SDS011;67962;47.310;9.642;2024-03-08T09:05:16;11.90;;;6.85;;
78648;SDS011;67962;47.310;9.642;2024-03-08T09:07:42;11.20;;;6.40;;
78648;SDS011;67962;47.310;9.642;2024-03-08T09:10:10;11.73;;;6.28;;
78648;SDS011;67962;47.310;9.642;2024-03-08T09:12:38;11.30;;;6.60;;
78648;SDS011;67962;47.310;9.642;2024-03-08T09:15:04;11.30;;;6.70;;
78648;SDS011;67962;47.310;9.642;2024-03-08T09:17:33;11.40;;;6.50;;
78648;SDS011;67962;47.310;9.642;2024-03-08T09:19:59;12.68;;;7.72;;
78648;SDS011;67962;47.310;9.642;2024-03-08T09:22:24;15.10;;;8.43;;
78648;SDS011;67962;47.310;9.642;2024-03-08T09:24:50;15.23;;;7.55;;
78648;SDS011;67962;47.310;9.642;2024-03-08T09:27:16;12.10;;;7.50;;
78648;SDS011;67962;47.310;9.642;2024-03-08T09:29:43;14.23;;;8.30;;
78648;SDS011;67962;47.310;9.642;2024-03-08T09:32:09;15.73;;;7.95;;
78648;SDS011;67962;47.310;9.642;2024-03-08T09:34:36;17.38;;;8.15;;
78648;SDS011;67962;47.310;9.642;2024-03-08T09:37:02;13.18;;;7.80;;
78648;SDS011;67962;47.310;9.642;2024-03-08T09:39:29;13.57;;;7.60;;
78648;SDS011;67962;47.310;9.642;2024-03-08T09:41:55;13.57;;;7.50;;
78648;SDS011;67962;47.310;9.642;2024-03-08T09:44:21;12.70;;;7.75;;
78648;SDS011;67962;47.310;9.642;2024-03-08T09:46:48;13.93;;;7.28;;
78648;SDS011;67962;47.310;9.642;2024-03-08T09:49:18;14.90;;;8.30;;
78648;SDS011;67962;47.310;9.642;2024-03-08T09:51:43;14.40;;;8.25;;
78648;SDS011;67962;47.310;9.642;2024-03-08T09:54:09;13.25;;;7.75;;
78648;SDS011;67962;47.310;9.642;2024-03-08T09:56:36;12.63;;;7.68;;
78648;SDS011;67962;47.310;9.642;2024-03-08T09:59:03;15.38;;;7.80;;
78648;SDS011;67962;47.310;9.642;2024-03-08T10:01:47;14.10;;;8.07;;
78648;SDS011;67962;47.310;9.642;2024-03-08T10:04:12;14.63;;;8.05;;
78648;SDS011;67962;47.310;9.642;2024-03-08T10:06:39;13.00;;;7.43;;
78648;SDS011;67962;47.310;9.642;2024-03-08T10:09:05;12.93;;;7.68;;
78648;SDS011;67962;47.310;9.642;2024-03-08T10:11:33;13.70;;;7.72;;
78648;SDS011;67962;47.310;9.642;2024-03-08T10:14:00;15.18;;;7.57;;
78648;SDS011;67962;47.310;9.642;2024-03-08T10:16:29;12.30;;;7.25;;
78648;SDS011;67962;47.310;9.642;2024-03-08T10:18:58;13.93;;;7.25;;
78648;SDS011;67962;47.310;9.642;2024-03-08T10:21:25;14.27;;;8.07;;
78648;SDS011;67962;47.310;9.642;2024-03-08T10:23:52;11.32;;;7.15;;
78648;SDS011;67962;47.310;9.642;2024-03-08T10:26:18;16.85;;;9.30;;
78648;SDS011;67962;47.310;9.642;2024-03-08T10:28:46;20.85;;;9.75;;
78648;SDS011;67962;47.310;9.642;2024-03-08T10:31:16;24.80;;;9.57;;
78648;SDS011;67962;47.310;9.642;2024-03-08T10:33:42;17.90;;;10.18;;
78648;SDS011;67962;47.310;9.642;2024-03-08T10:36:09;18.63;;;9.70;;
78648;SDS011;67962;47.310;9.642;2024-03-08T10:38:36;19.35;;;9.55;;
78648;SDS011;67962;47.310;9.642;2024-03-08T10:41:05;20.20;;;11.52;;
78648;SDS011;67962;47.310;9.642;2024-03-08T10:43:32;21.55;;;10.80;;
78648;SDS011;67962;47.310;9.642;2024-03-08T10:46:27;19.05;;;10.07;;
78648;SDS011;67962;47.310;9.642;2024-03-08T10:49:16;19.67;;;10.07;;
78648;SDS011;67962;47.310;9.642;2024-03-08T10:51:42;19.48;;;10.02;;
78648;SDS011;67962;47.310;9.642;2024-03-08T10:54:09;20.67;;;10.70;;
78648;SDS011;67962;47.310;9.642;2024-03-08T10:56:36;21.08;;;10.20;;
78648;SDS011;67962;47.310;9.642;2024-03-08T10:59:05;21.15;;;10.73;;
78648;SDS011;67962;47.310;9.642;2024-03-08T11:01:33;20.98;;;10.70;;
78648;SDS011;67962;47.310;9.642;2024-03-08T11:03:59;23.50;;;10.25;;
78648;SDS011;67962;47.310;9.642;2024-03-08T11:09:02;18.58;;;10.25;;
78648;SDS011;67962;47.310;9.642;2024-03-08T11:11:38;19.63;;;10.52;;
78648;SDS011;67962;47.310;9.642;2024-03-08T11:14:05;17.77;;;10.05;;
78648;SDS011;67962;47.310;9.642;2024-03-08T11:16:51;19.55;;;10.25;;
78648;SDS011;67962;47.310;9.642;2024-03-08T11:21:43;18.25;;;9.95;;
78648;SDS011;67962;47.310;9.642;2024-03-08T11:24:13;20.23;;;10.63;;
78648;SDS011;67962;47.310;9.642;2024-03-08T11:26:39;19.77;;;10.07;;
78648;SDS011;67962;47.310;9.642;2024-03-08T11:32:03;22.55;;;11.00;;
78648;SDS011;67962;47.310;9.642;2024-03-08T11:34:30;17.80;;;9.30;;
78648;SDS011;67962;47.310;9.642;2024-03-08T11:36:58;21.20;;;12.02;;
78648;SDS011;67962;47.310;9.642;2024-03-08T11:39:24;19.10;;;10.30;;
78648;SDS011;67962;47.310;9.642;2024-03-08T11:41:51;18.67;;;10.27;;
78648;SDS011;67962;47.310;9.642;2024-03-08T11:44:17;20.02;;;9.50;;
78648;SDS011;67962;47.310;9.642;2024-03-08T11:46:42;18.80;;;10.18;;
78648;SDS011;67962;47.310;9.642;2024-03-08T11:49:12;18.33;;;10.48;;
78648;SDS011;67962;47.310;9.642;2024-03-08T11:51:39;18.90;;;10.20;;
78648;SDS011;67962;47.310;9.642;2024-03-08T11:54:05;17.58;;;9.63;;
78648;SDS011;67962;47.310;9.642;2024-03-08T11:56:36;21.85;;;10.43;;
78648;SDS011;67962;47.310;9.642;2024-03-08T11:59:02;19.65;;;10.40;;
78648;SDS011;67962;47.310;9.642;2024-03-08T12:01:28;18.35;;;10.60;;
78648;SDS011;67962;47.310;9.642;2024-03-08T12:03:54;19.30;;;10.60;;
78648;SDS011;67962;47.310;9.642;2024-03-08T12:06:23;20.27;;;10.07;;
78648;SDS011;67962;47.310;9.642;2024-03-08T12:08:49;19.33;;;10.35;;
78648;SDS011;67962;47.310;9.642;2024-03-08T12:11:19;19.42;;;10.40;;
78648;SDS011;67962;47.310;9.642;2024-03-08T12:13:48;17.92;;;9.48;;
78648;SDS011;67962;47.310;9.642;2024-03-08T12:16:16;16.63;;;9.07;;
78648;SDS011;67962;47.310;9.642;2024-03-08T12:18:50;19.92;;;10.15;;
78648;SDS011;67962;47.310;9.642;2024-03-08T12:21:18;16.85;;;9.13;;
78648;SDS011;67962;47.310;9.642;2024-03-08T12:24:00;15.95;;;9.27;;
78648;SDS011;67962;47.310;9.642;2024-03-08T12:26:30;17.67;;;9.05;;
78648;SDS011;67962;47.310;9.642;2024-03-08T12:29:13;16.52;;;9.43;;
78648;SDS011;67962;47.310;9.642;2024-03-08T12:31:45;19.65;;;9.98;;
78648;SDS011;67962;47.310;9.642;2024-03-08T12:34:11;15.60;;;9.10;;
78648;SDS011;67962;47.310;9.642;2024-03-08T12:36:43;18.10;;;9.60;;
78648;SDS011;67962;47.310;9.642;2024-03-08T12:39:16;19.40;;;9.25;;
78648;SDS011;67962;47.310;9.642;2024-03-08T12:41:46;16.95;;;9.60;;
78648;SDS011;67962;47.310;9.642;2024-03-08T12:44:12;15.45;;;8.88;;
78648;SDS011;67962;47.310;9.642;2024-03-08T12:46:38;17.27;;;9.35;;
78648;SDS011;67962;47.310;9.642;2024-03-08T12:49:08;16.02;;;8.93;;
78648;SDS011;67962;47.310;9.642;2024-03-08T12:51:37;15.40;;;9.02;;
78648;SDS011;67962;47.310;9.642;2024-03-08T12:54:04;16.70;;;8.80;;
78648;SDS011;67962;47.310;9.642;2024-03-08T12:56:33;14.77;;;9.10;;
78648;SDS011;67962;47.310;9.642;2024-03-08T12:59:03;17.83;;;9.25;;
78648;SDS011;67962;47.310;9.642;2024-03-08T13:01:30;18.45;;;9.15;;
78648;SDS011;67962;47.310;9.642;2024-03-08T13:03:59;20.30;;;9.77;;
78648;SDS011;67962;47.310;9.642;2024-03-08T13:06:28;17.42;;;9.30;;
78648;SDS011;67962;47.310;9.642;2024-03-08T13:08:54;16.40;;;8.80;;
78648;SDS011;67962;47.310;9.642;2024-03-08T13:11:20;15.98;;;9.10;;
78648;SDS011;67962;47.310;9.642;2024-03-08T13:13:47;16.67;;;9.38;;
78648;SDS011;67962;47.310;9.642;2024-03-08T13:16:12;16.35;;;9.77;;
78648;SDS011;67962;47.310;9.642;2024-03-08T13:18:44;16.52;;;9.73;;
78648;SDS011;67962;47.310;9.642;2024-03-08T13:21:10;16.75;;;10.43;;
78648;SDS011;67962;47.310;9.642;2024-03-08T13:23:38;178.23;;;13.07;;
78648;SDS011;67962;47.310;9.642;2024-03-08T13:26:05;20.95;;;10.90;;
78648;SDS011;67962;47.310;9.642;2024-03-08T13:28:37;19.95;;;9.95;;
78648;SDS011;67962;47.310;9.642;2024-03-08T13:31:06;17.52;;;10.20;;
78648;SDS011;67962;47.310;9.642;2024-03-08T13:33:35;18.25;;;9.65;;
78648;SDS011;67962;47.310;9.642;2024-03-08T13:36:08;64.25;;;11.27;;
78648;SDS011;67962;47.310;9.642;2024-03-08T13:38:43;16.92;;;9.60;;
78648;SDS011;67962;47.310;9.642;2024-03-08T13:41:10;16.50;;;9.60;;
78648;SDS011;67962;47.310;9.642;2024-03-08T13:43:37;17.40;;;9.85;;
78648;SDS011;67962;47.310;9.642;2024-03-08T13:46:03;17.27;;;9.77;;
78648;SDS011;67962;47.310;9.642;2024-03-08T13:48:29;16.52;;;9.45;;
78648;SDS011;67962;47.310;9.642;2024-03-08T13:50:56;17.50;;;10.63;;
78648;SDS011;67962;47.310;9.642;2024-03-08T13:53:22;18.95;;;10.90;;
78648;SDS011;67962;47.310;9.642;2024-03-08T13:55:49;16.73;;;10.38;;
78648;SDS011;67962;47.310;9.642;2024-03-08T13:58:15;15.82;;;9.75;;
78648;SDS011;67962;47.310;9.642;2024-03-08T14:00:41;18.65;;;10.30;;
78648;SDS011;67962;47.310;9.642;2024-03-08T14:03:09;19.05;;;10.27;;
78648;SDS011;67962;47.310;9.642;2024-03-08T14:05:38;19.70;;;10.77;;
78648;SDS011;67962;47.310;9.642;2024-03-08T14:08:04;22.27;;;10.52;;
78648;SDS011;67962;47.310;9.642;2024-03-08T14:10:36;17.13;;;10.23;;
78648;SDS011;67962;47.310;9.642;2024-03-08T14:13:02;17.10;;;10.25;;
78648;SDS011;67962;47.310;9.642;2024-03-08T14:15:30;18.27;;;10.52;;
78648;SDS011;67962;47.310;9.642;2024-03-08T14:17:56;25.35;;;11.48;;
78648;SDS011;67962;47.310;9.642;2024-03-08T14:20:22;16.58;;;10.13;;
78648;SDS011;67962;47.310;9.642;2024-03-08T14:22:51;18.17;;;10.15;;
78648;SDS011;67962;47.310;9.642;2024-03-08T14:25:17;16.98;;;10.70;;
78648;SDS011;67962;47.310;9.642;2024-03-08T14:27:46;20.50;;;11.00;;
78648;SDS011;67962;47.310;9.642;2024-03-08T14:30:12;17.20;;;10.02;;
78648;SDS011;67962;47.310;9.642;2024-03-08T14:32:38;15.60;;;9.43;;
78648;SDS011;67962;47.310;9.642;2024-03-08T14:35:06;18.75;;;10.48;;
78648;SDS011;67962;47.310;9.642;2024-03-08T14:37:32;19.17;;;11.38;;
78648;SDS011;67962;47.310;9.642;2024-03-08T14:39:58;19.13;;;10.48;;
78648;SDS011;67962;47.310;9.642;2024-03-08T14:42:24;17.48;;;10.85;;
78648;SDS011;67962;47.310;9.642;2024-03-08T14:44:51;18.63;;;10.75;;